Airfield :
LOGIN :

Register | Disclaimer

   EN    FR    IT 

 










Legend :    VFR   Marginal VFR   IFR   Intensive IFR   Very Intensive IFR
Visi :
Ceiling :
>= 8 km
>= 3000ft
5 to 8 km
1000 to 3000 ft
1500m to 5 km
500 to 1000 ft
800 to 1500m
200 to 500 ft
< 800m
< 200 ft
Symbols :   Thunderstorms  Fog  Heavy snow  Heavy precipitations  Wind > 20 kt
SIGMETs :     Misc.  Thunderstorms  Icing  Turbulence  Mountain Waves  Volcanic Ashes






- Airport Elevation : 13 ft
- IATA code : OST


EBOS - Oostend bruges Int.

CURRENT METAR :
  • 112350Z 23008KT 9999 FEW017 BKN032 04/03 Q1002 NOSIG

EXPIRED METARs :
  • 112320Z 22009KT 9999 FEW017 BKN040 04/03 Q1003 NOSIG
  • 112250Z 22009KT 9999 FEW020 BKN040 04/03 Q1003 NOSIG
  • 112220Z 21009KT 9999 -SHRA FEW005 SCT020 BKN040 04/03 Q1003 NOSIG
  • 112150Z 20008KT 9999 FEW028 SCT042 04/03 Q1003 NOSIG
  • 112120Z 20010KT 9999 FEW028 SCT040 05/03 Q1003 NOSIG
  • 112050Z 22008KT 9999 FEW018TCU SCT035 BKN048 05/03 Q1003 TEMPO 4000 SHRA

TAF TAF EBOS
Valid from the 12 at 00:00 until the 13 at 06:00 UTC


112300Z 1200/1306 27012KT 9999 SCT025
BECMG 1204/1206 21010KT
PROB30
TEMPO 1205/1208 3000 BR MIFG
PROB30
TEMPO 1208/1211 BKN008
BECMG 1211/1213 17016G27KT SCT008 BKN012
TEMPO 1215/1301 4000 RADZ SCT005 BKN008
BECMG 1300/1302 26020G30KT SCT010 SCT025
PROB40
TEMPO 1300/1306 4000 SHRA BKN014CB



MET'MAP, your aeronautical weather chart ! - Copyright ORBIFLY December 2007 - Disclaimer

ORBIFLY MET'MAP TEAM :

Programming & Development : Alexandra Zaïnal
Concept & original design : Baudouin d'Aumeries
Assistance for programming : Marc-Olivier Méhu
Technical & hardware support : Manuel Goepfert

Contact : metmap@orbifly.com




SOURCES & CREDITS :

   NOAA